sensor_id;sensor_type;location;lat;lon;timestamp;P1;durP1;ratioP1;P2;durP2;ratioP2
41755;SDS011;27435;48.480;9.258;2022-08-26T00:02:25;6.72;;;4.75;;
41755;SDS011;27435;48.480;9.258;2022-08-26T00:04:51;7.10;;;4.30;;
41755;SDS011;27435;48.480;9.258;2022-08-26T00:07:16;8.75;;;5.10;;
41755;SDS011;27435;48.480;9.258;2022-08-26T00:09:42;7.95;;;4.80;;
41755;SDS011;27435;48.480;9.258;2022-08-26T00:12:08;8.18;;;4.78;;
41755;SDS011;27435;48.480;9.258;2022-08-26T00:14:34;7.75;;;5.07;;
41755;SDS011;27435;48.480;9.258;2022-08-26T00:17:00;7.20;;;4.47;;
41755;SDS011;27435;48.480;9.258;2022-08-26T00:19:26;8.15;;;5.15;;
41755;SDS011;27435;48.480;9.258;2022-08-26T00:21:52;6.82;;;5.55;;
41755;SDS011;27435;48.480;9.258;2022-08-26T00:24:18;7.60;;;4.57;;
41755;SDS011;27435;48.480;9.258;2022-08-26T00:26:45;7.28;;;4.63;;
41755;SDS011;27435;48.480;9.258;2022-08-26T00:29:11;6.68;;;4.55;;
41755;SDS011;27435;48.480;9.258;2022-08-26T00:31:37;6.75;;;4.50;;
41755;SDS011;27435;48.480;9.258;2022-08-26T00:34:03;6.43;;;4.72;;
41755;SDS011;27435;48.480;9.258;2022-08-26T00:36:28;7.03;;;4.40;;
41755;SDS011;27435;48.480;9.258;2022-08-26T00:38:56;8.73;;;5.15;;
41755;SDS011;27435;48.480;9.258;2022-08-26T00:41:22;7.45;;;5.07;;
41755;SDS011;27435;48.480;9.258;2022-08-26T00:43:47;9.15;;;5.00;;
41755;SDS011;27435;48.480;9.258;2022-08-26T00:46:16;8.40;;;4.78;;
41755;SDS011;27435;48.480;9.258;2022-08-26T00:48:46;7.45;;;4.85;;
41755;SDS011;27435;48.480;9.258;2022-08-26T00:51:15;8.50;;;4.75;;
41755;SDS011;27435;48.480;9.258;2022-08-26T00:53:49;8.75;;;4.90;;
41755;SDS011;27435;48.480;9.258;2022-08-26T00:56:20;11.15;;;5.32;;
41755;SDS011;27435;48.480;9.258;2022-08-26T00:58:58;6.57;;;5.05;;
41755;SDS011;27435;48.480;9.258;2022-08-26T01:01:26;7.70;;;5.10;;
41755;SDS011;27435;48.480;9.258;2022-08-26T01:03:52;6.40;;;4.65;;
41755;SDS011;27435;48.480;9.258;2022-08-26T01:06:19;6.53;;;4.25;;
41755;SDS011;27435;48.480;9.258;2022-08-26T01:08:46;6.80;;;5.25;;
41755;SDS011;27435;48.480;9.258;2022-08-26T01:11:12;9.10;;;4.80;;
41755;SDS011;27435;48.480;9.258;2022-08-26T01:13:39;6.78;;;5.15;;
41755;SDS011;27435;48.480;9.258;2022-08-26T01:16:05;8.80;;;5.57;;
41755;SDS011;27435;48.480;9.258;2022-08-26T01:18:34;8.50;;;4.80;;
41755;SDS011;27435;48.480;9.258;2022-08-26T01:21:21;7.30;;;4.68;;
41755;SDS011;27435;48.480;9.258;2022-08-26T01:23:52;6.25;;;4.82;;
41755;SDS011;27435;48.480;9.258;2022-08-26T01:26:29;8.90;;;4.97;;
41755;SDS011;27435;48.480;9.258;2022-08-26T01:29:02;7.57;;;4.90;;
41755;SDS011;27435;48.480;9.258;2022-08-26T01:31:37;7.72;;;5.40;;
41755;SDS011;27435;48.480;9.258;2022-08-26T01:34:48;12.32;;;5.43;;
41755;SDS011;27435;48.480;9.258;2022-08-26T01:37:10;10.15;;;5.13;;
41755;SDS011;27435;48.480;9.258;2022-08-26T01:39:46;8.70;;;5.68;;
41755;SDS011;27435;48.480;9.258;2022-08-26T01:42:14;7.13;;;5.20;;
41755;SDS011;27435;48.480;9.258;2022-08-26T01:44:45;10.60;;;5.15;;
41755;SDS011;27435;48.480;9.258;2022-08-26T01:47:20;11.02;;;5.57;;
41755;SDS011;27435;48.480;9.258;2022-08-26T01:49:50;8.20;;;5.07;;
41755;SDS011;27435;48.480;9.258;2022-08-26T01:52:20;8.25;;;5.40;;
41755;SDS011;27435;48.480;9.258;2022-08-26T01:54:48;6.10;;;4.60;;
41755;SDS011;27435;48.480;9.258;2022-08-26T01:57:15;8.40;;;5.40;;
41755;SDS011;27435;48.480;9.258;2022-08-26T01:59:42;7.40;;;5.38;;
41755;SDS011;27435;48.480;9.258;2022-08-26T02:02:08;8.38;;;5.13;;
41755;SDS011;27435;48.480;9.258;2022-08-26T02:05:07;7.00;;;5.28;;
41755;SDS011;27435;48.480;9.258;2022-08-26T02:07:29;9.65;;;5.43;;
41755;SDS011;27435;48.480;9.258;2022-08-26T02:09:56;8.15;;;5.65;;
41755;SDS011;27435;48.480;9.258;2022-08-26T02:12:23;8.60;;;5.78;;
41755;SDS011;27435;48.480;9.258;2022-08-26T02:14:54;7.18;;;5.60;;
41755;SDS011;27435;48.480;9.258;2022-08-26T02:17:25;11.60;;;5.82;;
41755;SDS011;27435;48.480;9.258;2022-08-26T02:19:57;8.38;;;5.97;;
41755;SDS011;27435;48.480;9.258;2022-08-26T02:22:23;11.50;;;5.30;;
41755;SDS011;27435;48.480;9.258;2022-08-26T02:27:23;7.25;;;5.45;;
41755;SDS011;27435;48.480;9.258;2022-08-26T02:29:59;7.65;;;5.10;;
41755;SDS011;27435;48.480;9.258;2022-08-26T02:32:44;9.13;;;6.03;;
41755;SDS011;27435;48.480;9.258;2022-08-26T02:35:11;7.53;;;5.57;;
41755;SDS011;27435;48.480;9.258;2022-08-26T02:37:39;8.90;;;5.80;;
41755;SDS011;27435;48.480;9.258;2022-08-26T02:40:06;9.05;;;5.35;;
41755;SDS011;27435;48.480;9.258;2022-08-26T02:42:33;8.82;;;5.97;;
41755;SDS011;27435;48.480;9.258;2022-08-26T02:44:58;8.23;;;5.55;;
41755;SDS011;27435;48.480;9.258;2022-08-26T02:47:24;6.55;;;5.40;;
41755;SDS011;27435;48.480;9.258;2022-08-26T02:49:50;10.95;;;6.05;;
41755;SDS011;27435;48.480;9.258;2022-08-26T02:52:16;9.25;;;5.32;;
41755;SDS011;27435;48.480;9.258;2022-08-26T02:54:42;8.27;;;5.50;;
41755;SDS011;27435;48.480;9.258;2022-08-26T02:57:08;10.95;;;5.97;;
41755;SDS011;27435;48.480;9.258;2022-08-26T02:59:34;9.18;;;6.82;;
41755;SDS011;27435;48.480;9.258;2022-08-26T03:02:03;8.27;;;6.03;;
41755;SDS011;27435;48.480;9.258;2022-08-26T03:04:29;8.95;;;6.00;;
41755;SDS011;27435;48.480;9.258;2022-08-26T03:06:55;10.80;;;6.72;;
41755;SDS011;27435;48.480;9.258;2022-08-26T03:09:21;11.35;;;7.30;;
41755;SDS011;27435;48.480;9.258;2022-08-26T03:11:47;11.32;;;6.47;;
41755;SDS011;27435;48.480;9.258;2022-08-26T03:14:13;9.77;;;6.20;;
41755;SDS011;27435;48.480;9.258;2022-08-26T03:16:39;10.60;;;7.20;;
41755;SDS011;27435;48.480;9.258;2022-08-26T03:19:05;12.98;;;7.10;;
41755;SDS011;27435;48.480;9.258;2022-08-26T03:21:32;10.25;;;6.97;;
41755;SDS011;27435;48.480;9.258;2022-08-26T03:23:59;9.57;;;6.40;;
41755;SDS011;27435;48.480;9.258;2022-08-26T03:26:25;9.43;;;6.85;;
41755;SDS011;27435;48.480;9.258;2022-08-26T03:28:51;12.38;;;6.32;;
41755;SDS011;27435;48.480;9.258;2022-08-26T03:31:36;13.27;;;7.13;;
41755;SDS011;27435;48.480;9.258;2022-08-26T03:34:02;11.32;;;6.55;;
41755;SDS011;27435;48.480;9.258;2022-08-26T03:36:28;9.73;;;6.75;;
41755;SDS011;27435;48.480;9.258;2022-08-26T03:38:54;9.43;;;6.65;;
41755;SDS011;27435;48.480;9.258;2022-08-26T03:41:20;10.68;;;6.82;;
41755;SDS011;27435;48.480;9.258;2022-08-26T03:43:46;13.07;;;7.50;;
41755;SDS011;27435;48.480;9.258;2022-08-26T03:46:14;12.63;;;6.45;;
41755;SDS011;27435;48.480;9.258;2022-08-26T03:48:40;9.40;;;6.30;;
41755;SDS011;27435;48.480;9.258;2022-08-26T03:51:10;10.18;;;6.88;;
41755;SDS011;27435;48.480;9.258;2022-08-26T03:53:37;13.45;;;7.47;;
41755;SDS011;27435;48.480;9.258;2022-08-26T03:56:03;11.50;;;7.20;;
41755;SDS011;27435;48.480;9.258;2022-08-26T03:58:30;10.52;;;7.30;;
41755;SDS011;27435;48.480;9.258;2022-08-26T04:00:56;8.98;;;7.10;;
41755;SDS011;27435;48.480;9.258;2022-08-26T04:03:23;12.10;;;6.70;;
41755;SDS011;27435;48.480;9.258;2022-08-26T04:06:08;9.68;;;6.72;;
41755;SDS011;27435;48.480;9.258;2022-08-26T04:08:34;11.73;;;7.13;;
41755;SDS011;27435;48.480;9.258;2022-08-26T04:10:59;11.63;;;7.85;;
41755;SDS011;27435;48.480;9.258;2022-08-26T04:13:28;12.23;;;7.13;;
41755;SDS011;27435;48.480;9.258;2022-08-26T04:15:54;11.60;;;7.60;;
41755;SDS011;27435;48.480;9.258;2022-08-26T04:18:20;11.07;;;8.40;;
41755;SDS011;27435;48.480;9.258;2022-08-26T04:20:46;11.07;;;7.55;;
41755;SDS011;27435;48.480;9.258;2022-08-26T04:23:13;10.05;;;7.50;;
41755;SDS011;27435;48.480;9.258;2022-08-26T04:25:39;10.57;;;7.60;;
41755;SDS011;27435;48.480;9.258;2022-08-26T04:28:04;11.10;;;6.95;;
41755;SDS011;27435;48.480;9.258;2022-08-26T04:30:30;14.77;;;8.48;;
41755;SDS011;27435;48.480;9.258;2022-08-26T04:32:56;12.50;;;8.20;;
41755;SDS011;27435;48.480;9.258;2022-08-26T04:35:22;10.18;;;8.38;;
41755;SDS011;27435;48.480;9.258;2022-08-26T04:37:49;10.13;;;7.95;;
41755;SDS011;27435;48.480;9.258;2022-08-26T04:40:15;11.93;;;7.55;;
41755;SDS011;27435;48.480;9.258;2022-08-26T04:42:41;10.60;;;7.68;;
41755;SDS011;27435;48.480;9.258;2022-08-26T04:45:06;12.68;;;7.78;;
41755;SDS011;27435;48.480;9.258;2022-08-26T04:47:32;10.20;;;7.05;;
41755;SDS011;27435;48.480;9.258;2022-08-26T04:49:58;11.90;;;7.60;;
41755;SDS011;27435;48.480;9.258;2022-08-26T04:52:24;13.02;;;7.53;;
41755;SDS011;27435;48.480;9.258;2022-08-26T04:54:50;10.32;;;7.22;;
41755;SDS011;27435;48.480;9.258;2022-08-26T04:57:16;10.43;;;7.57;;
41755;SDS011;27435;48.480;9.258;2022-08-26T04:59:42;15.00;;;7.28;;
41755;SDS011;27435;48.480;9.258;2022-08-26T05:02:07;13.32;;;7.47;;
41755;SDS011;27435;48.480;9.258;2022-08-26T05:04:33;13.77;;;8.00;;
41755;SDS011;27435;48.480;9.258;2022-08-26T05:06:58;9.70;;;7.10;;
41755;SDS011;27435;48.480;9.258;2022-08-26T05:09:25;9.13;;;6.72;;
41755;SDS011;27435;48.480;9.258;2022-08-26T05:11:50;10.95;;;7.82;;
41755;SDS011;27435;48.480;9.258;2022-08-26T05:14:16;11.35;;;7.28;;
41755;SDS011;27435;48.480;9.258;2022-08-26T05:16:42;8.50;;;6.90;;
41755;SDS011;27435;48.480;9.258;2022-08-26T05:19:08;8.45;;;6.70;;
41755;SDS011;27435;48.480;9.258;2022-08-26T05:21:34;9.45;;;7.18;;
41755;SDS011;27435;48.480;9.258;2022-08-26T05:23:59;9.90;;;6.82;;
41755;SDS011;27435;48.480;9.258;2022-08-26T05:26:28;9.57;;;6.50;;
41755;SDS011;27435;48.480;9.258;2022-08-26T05:28:54;11.55;;;6.75;;
41755;SDS011;27435;48.480;9.258;2022-08-26T05:31:25;13.70;;;6.97;;
41755;SDS011;27435;48.480;9.258;2022-08-26T05:33:53;9.88;;;6.63;;
41755;SDS011;27435;48.480;9.258;2022-08-26T05:36:21;9.63;;;6.68;;
41755;SDS011;27435;48.480;9.258;2022-08-26T05:38:48;13.90;;;7.15;;
41755;SDS011;27435;48.480;9.258;2022-08-26T05:41:14;9.98;;;7.43;;
41755;SDS011;27435;48.480;9.258;2022-08-26T05:43:42;8.48;;;6.40;;
41755;SDS011;27435;48.480;9.258;2022-08-26T05:46:09;10.77;;;6.68;;
41755;SDS011;27435;48.480;9.258;2022-08-26T05:48:35;12.70;;;6.78;;
41755;SDS011;27435;48.480;9.258;2022-08-26T05:51:03;8.85;;;6.35;;
41755;SDS011;27435;48.480;9.258;2022-08-26T05:53:30;11.60;;;6.88;;
41755;SDS011;27435;48.480;9.258;2022-08-26T05:55:57;10.43;;;7.00;;
41755;SDS011;27435;48.480;9.258;2022-08-26T05:58:23;11.45;;;7.03;;
41755;SDS011;27435;48.480;9.258;2022-08-26T06:00:56;12.15;;;7.13;;
41755;SDS011;27435;48.480;9.258;2022-08-26T06:03:27;12.27;;;7.18;;
41755;SDS011;27435;48.480;9.258;2022-08-26T06:05:55;11.55;;;6.60;;
41755;SDS011;27435;48.480;9.258;2022-08-26T06:08:21;11.75;;;7.55;;
41755;SDS011;27435;48.480;9.258;2022-08-26T06:10:48;9.82;;;7.32;;
41755;SDS011;27435;48.480;9.258;2022-08-26T06:13:24;11.00;;;6.72;;
41755;SDS011;27435;48.480;9.258;2022-08-26T06:15:51;10.88;;;6.93;;
41755;SDS011;27435;48.480;9.258;2022-08-26T06:18:19;12.63;;;7.22;;
41755;SDS011;27435;48.480;9.258;2022-08-26T06:20:59;12.63;;;7.30;;
41755;SDS011;27435;48.480;9.258;2022-08-26T06:23:27;10.90;;;6.30;;
41755;SDS011;27435;48.480;9.258;2022-08-26T06:26:13;8.35;;;6.18;;
41755;SDS011;27435;48.480;9.258;2022-08-26T06:28:40;9.68;;;6.15;;
41755;SDS011;27435;48.480;9.258;2022-08-26T06:31:07;8.15;;;5.25;;
41755;SDS011;27435;48.480;9.258;2022-08-26T06:33:33;14.68;;;5.55;;
41755;SDS011;27435;48.480;9.258;2022-08-26T06:36:00;9.77;;;5.45;;
41755;SDS011;27435;48.480;9.258;2022-08-26T06:38:26;8.80;;;4.65;;
41755;SDS011;27435;48.480;9.258;2022-08-26T06:40:52;9.40;;;4.78;;
41755;SDS011;27435;48.480;9.258;2022-08-26T06:43:20;7.85;;;4.55;;
41755;SDS011;27435;48.480;9.258;2022-08-26T06:45:48;9.73;;;4.68;;
41755;SDS011;27435;48.480;9.258;2022-08-26T06:48:18;6.45;;;4.20;;
41755;SDS011;27435;48.480;9.258;2022-08-26T06:50:48;6.85;;;4.90;;
41755;SDS011;27435;48.480;9.258;2022-08-26T06:53:14;9.70;;;4.78;;
41755;SDS011;27435;48.480;9.258;2022-08-26T06:55:41;10.20;;;5.75;;
41755;SDS011;27435;48.480;9.258;2022-08-26T06:58:09;9.73;;;5.20;;
41755;SDS011;27435;48.480;9.258;2022-08-26T07:00:36;10.23;;;5.65;;
41755;SDS011;27435;48.480;9.258;2022-08-26T07:03:03;10.27;;;5.18;;
41755;SDS011;27435;48.480;9.258;2022-08-26T07:05:30;8.30;;;5.00;;
41755;SDS011;27435;48.480;9.258;2022-08-26T07:07:55;9.85;;;5.43;;
41755;SDS011;27435;48.480;9.258;2022-08-26T07:10:22;12.05;;;6.28;;
41755;SDS011;27435;48.480;9.258;2022-08-26T07:12:48;11.70;;;5.60;;
41755;SDS011;27435;48.480;9.258;2022-08-26T07:15:14;7.85;;;5.47;;
41755;SDS011;27435;48.480;9.258;2022-08-26T07:17:40;9.35;;;5.40;;
41755;SDS011;27435;48.480;9.258;2022-08-26T07:20:06;7.50;;;5.05;;
41755;SDS011;27435;48.480;9.258;2022-08-26T07:22:33;5.60;;;4.25;;
41755;SDS011;27435;48.480;9.258;2022-08-26T07:25:01;8.10;;;5.18;;
41755;SDS011;27435;48.480;9.258;2022-08-26T07:27:34;7.03;;;3.80;;
41755;SDS011;27435;48.480;9.258;2022-08-26T07:30:01;6.50;;;4.25;;
41755;SDS011;27435;48.480;9.258;2022-08-26T07:32:28;10.70;;;4.40;;
41755;SDS011;27435;48.480;9.258;2022-08-26T07:34:54;9.77;;;4.47;;
41755;SDS011;27435;48.480;9.258;2022-08-26T07:37:19;5.30;;;4.25;;
41755;SDS011;27435;48.480;9.258;2022-08-26T07:39:45;7.45;;;4.38;;
41755;SDS011;27435;48.480;9.258;2022-08-26T07:42:12;6.78;;;4.40;;
41755;SDS011;27435;48.480;9.258;2022-08-26T07:44:39;6.88;;;3.80;;
41755;SDS011;27435;48.480;9.258;2022-08-26T07:47:06;9.55;;;3.83;;
41755;SDS011;27435;48.480;9.258;2022-08-26T07:49:32;8.57;;;3.97;;
41755;SDS011;27435;48.480;9.258;2022-08-26T07:51:58;5.60;;;3.75;;
41755;SDS011;27435;48.480;9.258;2022-08-26T07:54:25;8.85;;;3.58;;
41755;SDS011;27435;48.480;9.258;2022-08-26T07:56:50;9.25;;;3.45;;
41755;SDS011;27435;48.480;9.258;2022-08-26T07:59:17;7.90;;;4.20;;
41755;SDS011;27435;48.480;9.258;2022-08-26T08:01:44;7.55;;;4.00;;
41755;SDS011;27435;48.480;9.258;2022-08-26T08:04:14;8.07;;;3.97;;
41755;SDS011;27435;48.480;9.258;2022-08-26T08:06:41;12.20;;;3.97;;
41755;SDS011;27435;48.480;9.258;2022-08-26T08:09:08;10.05;;;3.88;;
41755;SDS011;27435;48.480;9.258;2022-08-26T08:11:34;7.90;;;3.63;;
41755;SDS011;27435;48.480;9.258;2022-08-26T08:14:00;6.63;;;4.20;;
41755;SDS011;27435;48.480;9.258;2022-08-26T08:16:29;6.80;;;3.90;;
41755;SDS011;27435;48.480;9.258;2022-08-26T08:18:55;6.68;;;4.13;;
41755;SDS011;27435;48.480;9.258;2022-08-26T08:21:21;10.25;;;4.40;;
41755;SDS011;27435;48.480;9.258;2022-08-26T08:23:48;6.43;;;3.65;;
41755;SDS011;27435;48.480;9.258;2022-08-26T08:26:15;10.40;;;3.83;;
41755;SDS011;27435;48.480;9.258;2022-08-26T08:28:41;5.00;;;3.50;;
41755;SDS011;27435;48.480;9.258;2022-08-26T08:31:06;6.45;;;3.83;;
41755;SDS011;27435;48.480;9.258;2022-08-26T08:33:32;8.55;;;3.55;;
41755;SDS011;27435;48.480;9.258;2022-08-26T08:35:59;6.45;;;3.47;;
41755;SDS011;27435;48.480;9.258;2022-08-26T08:38:25;7.68;;;3.10;;
41755;SDS011;27435;48.480;9.258;2022-08-26T08:40:51;6.65;;;3.30;;
41755;SDS011;27435;48.480;9.258;2022-08-26T08:43:39;5.78;;;3.45;;
41755;SDS011;27435;48.480;9.258;2022-08-26T08:46:09;5.45;;;3.55;;
41755;SDS011;27435;48.480;9.258;2022-08-26T08:48:38;9.60;;;3.40;;
41755;SDS011;27435;48.480;9.258;2022-08-26T08:53:42;6.75;;;3.15;;
41755;SDS011;27435;48.480;9.258;2022-08-26T09:07:14;6.38;;;3.15;;
41755;SDS011;27435;48.480;9.258;2022-08-26T09:09:45;6.65;;;3.00;;
41755;SDS011;27435;48.480;9.258;2022-08-26T09:12:23;7.35;;;3.20;;
41755;SDS011;27435;48.480;9.258;2022-08-26T09:14:51;5.20;;;2.83;;
41755;SDS011;27435;48.480;9.258;2022-08-26T09:17:42;9.13;;;3.10;;
41755;SDS011;27435;48.480;9.258;2022-08-26T09:20:18;5.28;;;3.05;;
41755;SDS011;27435;48.480;9.258;2022-08-26T09:22:46;7.53;;;3.40;;
41755;SDS011;27435;48.480;9.258;2022-08-26T09:25:13;4.50;;;2.75;;
41755;SDS011;27435;48.480;9.258;2022-08-26T09:27:43;5.45;;;3.50;;
41755;SDS011;27435;48.480;9.258;2022-08-26T09:30:16;7.07;;;3.25;;
41755;SDS011;27435;48.480;9.258;2022-08-26T09:32:57;4.95;;;3.28;;
41755;SDS011;27435;48.480;9.258;2022-08-26T09:35:27;5.70;;;3.05;;
41755;SDS011;27435;48.480;9.258;2022-08-26T09:37:55;7.25;;;2.85;;
41755;SDS011;27435;48.480;9.258;2022-08-26T09:40:34;7.55;;;3.45;;
41755;SDS011;27435;48.480;9.258;2022-08-26T09:43:08;8.68;;;3.60;;
41755;SDS011;27435;48.480;9.258;2022-08-26T09:45:37;8.57;;;3.47;;
41755;SDS011;27435;48.480;9.258;2022-08-26T09:48:05;10.13;;;3.75;;
41755;SDS011;27435;48.480;9.258;2022-08-26T09:50:34;6.28;;;3.47;;
41755;SDS011;27435;48.480;9.258;2022-08-26T09:53:50;4.43;;;2.90;;
41755;SDS011;27435;48.480;9.258;2022-08-26T09:56:16;6.63;;;3.75;;
41755;SDS011;27435;48.480;9.258;2022-08-26T09:58:46;9.18;;;3.40;;
41755;SDS011;27435;48.480;9.258;2022-08-26T10:01:24;7.05;;;3.20;;
41755;SDS011;27435;48.480;9.258;2022-08-26T10:04:12;8.13;;;2.80;;
41755;SDS011;27435;48.480;9.258;2022-08-26T10:06:56;8.40;;;3.53;;
41755;SDS011;27435;48.480;9.258;2022-08-26T10:09:27;6.18;;;2.90;;
41755;SDS011;27435;48.480;9.258;2022-08-26T10:11:59;9.20;;;3.15;;
41755;SDS011;27435;48.480;9.258;2022-08-26T10:14:41;4.95;;;3.10;;
41755;SDS011;27435;48.480;9.258;2022-08-26T10:19:58;7.78;;;3.28;;
41755;SDS011;27435;48.480;9.258;2022-08-26T10:25:14;8.77;;;3.40;;
41755;SDS011;27435;48.480;9.258;2022-08-26T10:27:51;5.30;;;3.10;;
41755;SDS011;27435;48.480;9.258;2022-08-26T10:30:46;7.10;;;3.67;;
41755;SDS011;27435;48.480;9.258;2022-08-26T10:33:24;6.88;;;3.60;;
41755;SDS011;27435;48.480;9.258;2022-08-26T10:35:51;6.95;;;3.30;;
41755;SDS011;27435;48.480;9.258;2022-08-26T10:38:38;7.07;;;3.03;;
41755;SDS011;27435;48.480;9.258;2022-08-26T10:41:12;6.32;;;3.40;;
41755;SDS011;27435;48.480;9.258;2022-08-26T10:43:44;5.50;;;3.40;;
41755;SDS011;27435;48.480;9.258;2022-08-26T10:46:18;6.93;;;3.42;;
41755;SDS011;27435;48.480;9.258;2022-08-26T10:49:05;6.60;;;3.75;;
41755;SDS011;27435;48.480;9.258;2022-08-26T10:51:51;9.27;;;3.38;;
41755;SDS011;27435;48.480;9.258;2022-08-26T11:10:11;10.13;;;3.25;;
41755;SDS011;27435;48.480;9.258;2022-08-26T11:13:07;10.65;;;3.45;;
41755;SDS011;27435;48.480;9.258;2022-08-26T11:18:03;9.02;;;3.70;;
41755;SDS011;27435;48.480;9.258;2022-08-26T11:20:52;7.60;;;3.55;;
41755;SDS011;27435;48.480;9.258;2022-08-26T11:28:32;5.20;;;3.45;;
41755;SDS011;27435;48.480;9.258;2022-08-26T11:31:02;5.82;;;3.42;;
41755;SDS011;27435;48.480;9.258;2022-08-26T11:39:12;8.63;;;3.60;;
41755;SDS011;27435;48.480;9.258;2022-08-26T11:44:52;7.43;;;3.13;;
41755;SDS011;27435;48.480;9.258;2022-08-26T11:47:27;6.63;;;3.20;;
41755;SDS011;27435;48.480;9.258;2022-08-26T11:52:53;6.13;;;3.00;;
41755;SDS011;27435;48.480;9.258;2022-08-26T11:55:32;11.88;;;3.40;;
41755;SDS011;27435;48.480;9.258;2022-08-26T11:57:59;6.68;;;3.05;;
41755;SDS011;27435;48.480;9.258;2022-08-26T12:00:29;8.93;;;3.45;;
41755;SDS011;27435;48.480;9.258;2022-08-26T12:03:17;7.35;;;3.50;;
41755;SDS011;27435;48.480;9.258;2022-08-26T12:05:46;4.77;;;3.20;;
41755;SDS011;27435;48.480;9.258;2022-08-26T12:08:17;7.28;;;2.65;;
41755;SDS011;27435;48.480;9.258;2022-08-26T12:10:47;5.47;;;2.70;;
41755;SDS011;27435;48.480;9.258;2022-08-26T12:13:23;9.45;;;3.45;;
41755;SDS011;27435;48.480;9.258;2022-08-26T12:15:53;7.72;;;3.50;;
41755;SDS011;27435;48.480;9.258;2022-08-26T12:18:22;9.23;;;3.03;;
41755;SDS011;27435;48.480;9.258;2022-08-26T12:20:49;10.30;;;3.10;;
41755;SDS011;27435;48.480;9.258;2022-08-26T12:26:19;7.80;;;2.47;;
41755;SDS011;27435;48.480;9.258;2022-08-26T12:28:58;6.35;;;3.33;;
41755;SDS011;27435;48.480;9.258;2022-08-26T12:34:06;7.50;;;2.72;;
41755;SDS011;27435;48.480;9.258;2022-08-26T12:39:15;9.20;;;3.67;;
41755;SDS011;27435;48.480;9.258;2022-08-26T12:41:52;10.18;;;2.90;;
41755;SDS011;27435;48.480;9.258;2022-08-26T12:50:05;7.65;;;2.70;;
41755;SDS011;27435;48.480;9.258;2022-08-26T12:52:41;6.85;;;2.88;;
41755;SDS011;27435;48.480;9.258;2022-08-26T12:55:25;5.25;;;2.88;;
41755;SDS011;27435;48.480;9.258;2022-08-26T12:58:09;9.32;;;3.38;;
41755;SDS011;27435;48.480;9.258;2022-08-26T13:00:36;11.60;;;2.92;;
41755;SDS011;27435;48.480;9.258;2022-08-26T13:03:25;4.55;;;2.83;;
41755;SDS011;27435;48.480;9.258;2022-08-26T13:08:38;7.50;;;3.00;;
41755;SDS011;27435;48.480;9.258;2022-08-26T13:11:10;6.45;;;3.03;;
41755;SDS011;27435;48.480;9.258;2022-08-26T13:13:52;5.97;;;3.08;;
41755;SDS011;27435;48.480;9.258;2022-08-26T13:16:22;8.98;;;2.92;;
41755;SDS011;27435;48.480;9.258;2022-08-26T13:18:49;7.32;;;3.45;;
41755;SDS011;27435;48.480;9.258;2022-08-26T13:21:21;7.00;;;2.90;;
41755;SDS011;27435;48.480;9.258;2022-08-26T13:23:50;8.93;;;3.80;;
41755;SDS011;27435;48.480;9.258;2022-08-26T13:26:16;10.98;;;3.53;;
41755;SDS011;27435;48.480;9.258;2022-08-26T13:28:43;7.95;;;3.33;;
41755;SDS011;27435;48.480;9.258;2022-08-26T13:31:12;9.32;;;3.53;;
41755;SDS011;27435;48.480;9.258;2022-08-26T13:33:39;11.50;;;3.88;;
41755;SDS011;27435;48.480;9.258;2022-08-26T13:36:05;11.13;;;3.38;;
41755;SDS011;27435;48.480;9.258;2022-08-26T13:38:32;8.73;;;3.20;;
41755;SDS011;27435;48.480;9.258;2022-08-26T13:40:57;5.15;;;3.58;;
41755;SDS011;27435;48.480;9.258;2022-08-26T13:43:27;10.55;;;3.35;;
41755;SDS011;27435;48.480;9.258;2022-08-26T13:45:53;6.47;;;3.60;;
41755;SDS011;27435;48.480;9.258;2022-08-26T13:48:19;9.75;;;3.50;;
41755;SDS011;27435;48.480;9.258;2022-08-26T13:50:45;13.23;;;4.07;;
41755;SDS011;27435;48.480;9.258;2022-08-26T13:53:12;12.57;;;4.57;;
41755;SDS011;27435;48.480;9.258;2022-08-26T13:55:38;16.55;;;4.43;;
41755;SDS011;27435;48.480;9.258;2022-08-26T13:58:04;18.05;;;5.55;;
41755;SDS011;27435;48.480;9.258;2022-08-26T14:00:30;10.40;;;3.70;;
41755;SDS011;27435;48.480;9.258;2022-08-26T14:02:57;11.10;;;4.00;;
41755;SDS011;27435;48.480;9.258;2022-08-26T14:05:25;9.15;;;3.80;;
41755;SDS011;27435;48.480;9.258;2022-08-26T14:07:52;13.52;;;4.22;;
41755;SDS011;27435;48.480;9.258;2022-08-26T14:10:18;8.52;;;4.32;;
41755;SDS011;27435;48.480;9.258;2022-08-26T14:12:44;8.32;;;4.43;;
41755;SDS011;27435;48.480;9.258;2022-08-26T14:15:10;8.10;;;4.10;;
41755;SDS011;27435;48.480;9.258;2022-08-26T14:17:37;9.57;;;3.80;;
41755;SDS011;27435;48.480;9.258;2022-08-26T14:20:04;14.55;;;4.72;;
41755;SDS011;27435;48.480;9.258;2022-08-26T14:22:31;10.75;;;4.40;;
41755;SDS011;27435;48.480;9.258;2022-08-26T14:24:58;12.98;;;4.85;;
41755;SDS011;27435;48.480;9.258;2022-08-26T14:27:23;10.95;;;4.15;;
41755;SDS011;27435;48.480;9.258;2022-08-26T14:29:50;10.00;;;3.70;;
41755;SDS011;27435;48.480;9.258;2022-08-26T14:32:21;8.63;;;4.40;;
41755;SDS011;27435;48.480;9.258;2022-08-26T14:34:49;8.33;;;3.80;;
41755;SDS011;27435;48.480;9.258;2022-08-26T14:37:15;10.50;;;3.92;;
41755;SDS011;27435;48.480;9.258;2022-08-26T14:39:42;7.22;;;3.63;;
41755;SDS011;27435;48.480;9.258;2022-08-26T14:42:09;9.65;;;3.63;;
41755;SDS011;27435;48.480;9.258;2022-08-26T14:44:34;9.75;;;3.78;;
41755;SDS011;27435;48.480;9.258;2022-08-26T14:47:01;8.98;;;3.28;;
41755;SDS011;27435;48.480;9.258;2022-08-26T14:49:29;12.85;;;4.00;;
41755;SDS011;27435;48.480;9.258;2022-08-26T14:51:55;6.72;;;3.72;;
41755;SDS011;27435;48.480;9.258;2022-08-26T14:54:21;9.73;;;3.78;;
41755;SDS011;27435;48.480;9.258;2022-08-26T14:57:06;12.82;;;3.75;;
41755;SDS011;27435;48.480;9.258;2022-08-26T14:59:38;9.57;;;4.22;;
41755;SDS011;27435;48.480;9.258;2022-08-26T15:02:06;10.40;;;4.63;;
41755;SDS011;27435;48.480;9.258;2022-08-26T15:04:34;11.77;;;4.18;;
41755;SDS011;27435;48.480;9.258;2022-08-26T15:07:00;10.25;;;4.35;;
41755;SDS011;27435;48.480;9.258;2022-08-26T15:09:28;13.45;;;4.70;;
41755;SDS011;27435;48.480;9.258;2022-08-26T15:11:55;10.30;;;3.92;;
41755;SDS011;27435;48.480;9.258;2022-08-26T15:14:21;9.77;;;4.65;;
41755;SDS011;27435;48.480;9.258;2022-08-26T15:20:10;11.57;;;4.63;;
41755;SDS011;27435;48.480;9.258;2022-08-26T15:22:36;9.65;;;4.40;;
41755;SDS011;27435;48.480;9.258;2022-08-26T15:25:03;11.57;;;3.90;;
41755;SDS011;27435;48.480;9.258;2022-08-26T15:27:30;7.07;;;4.30;;
41755;SDS011;27435;48.480;9.258;2022-08-26T15:29:56;9.23;;;4.32;;
41755;SDS011;27435;48.480;9.258;2022-08-26T15:32:21;8.40;;;4.15;;
41755;SDS011;27435;48.480;9.258;2022-08-26T15:34:47;13.05;;;4.30;;
41755;SDS011;27435;48.480;9.258;2022-08-26T15:37:14;10.50;;;4.20;;
41755;SDS011;27435;48.480;9.258;2022-08-26T15:39:40;9.77;;;4.10;;
41755;SDS011;27435;48.480;9.258;2022-08-26T15:42:05;8.48;;;4.70;;
41755;SDS011;27435;48.480;9.258;2022-08-26T15:44:31;5.32;;;3.72;;
41755;SDS011;27435;48.480;9.258;2022-08-26T15:46:58;11.30;;;4.07;;
41755;SDS011;27435;48.480;9.258;2022-08-26T15:49:24;13.38;;;4.30;;
41755;SDS011;27435;48.480;9.258;2022-08-26T15:51:50;10.95;;;4.10;;
41755;SDS011;27435;48.480;9.258;2022-08-26T15:54:16;10.65;;;4.22;;
41755;SDS011;27435;48.480;9.258;2022-08-26T15:56:44;13.45;;;4.38;;
41755;SDS011;27435;48.480;9.258;2022-08-26T15:59:10;14.13;;;4.65;;
41755;SDS011;27435;48.480;9.258;2022-08-26T16:01:35;8.32;;;3.92;;
41755;SDS011;27435;48.480;9.258;2022-08-26T16:04:02;9.20;;;4.78;;
41755;SDS011;27435;48.480;9.258;2022-08-26T16:06:30;10.45;;;4.32;;
41755;SDS011;27435;48.480;9.258;2022-08-26T16:08:57;9.13;;;4.65;;
41755;SDS011;27435;48.480;9.258;2022-08-26T16:11:23;8.32;;;4.13;;
41755;SDS011;27435;48.480;9.258;2022-08-26T16:13:50;13.25;;;4.57;;